Time;durP1;ratioP1;P1;durP2;ratioP2;P2;SDS_P1;SDS_P2;PMS_P1;PMS_P2;Temp;Humidity;BMP_temperature;BMP_pressure;BME280_temperature;BME280_humidity;BME280_pressure;Samples;Min_cycle;Max_cycle;Signal;HPM_P1;HPM_P2
2023/11/15 00:02:02;;;;;;;10.87;6.30;;;10.50;99.90;;;;;;5028933;28;20821;-68
2023/11/15 00:04:28;;;;;;;10.10;5.67;;;10.50;99.90;;;;;;5029582;28;20435;-68
2023/11/15 00:06:54;;;;;;;13.33;6.07;;;10.40;99.90;;;;;;5030856;28;20696;-68
2023/11/15 00:09:19;;;;;;;6.63;5.40;;;10.40;99.90;;;;;;5030853;28;20182;-68
2023/11/15 00:11:45;;;;;;;6.30;4.97;;;10.50;99.90;;;;;;5028994;28;20813;-68
2023/11/15 00:14:11;;;;;;;6.40;5.37;;;10.50;99.90;;;;;;5029347;28;20273;-68
2023/11/15 00:16:37;;;;;;;8.80;5.47;;;10.60;99.90;;;;;;5029308;28;20601;-68
2023/11/15 00:19:04;;;;;;;10.13;6.17;;;10.60;99.90;;;;;;5029684;28;20217;-68
2023/11/15 00:21:30;;;;;;;7.10;5.10;;;10.60;99.90;;;;;;5030586;28;20418;-68
2023/11/15 00:23:55;;;;;;;7.70;5.23;;;10.60;99.90;;;;;;5028154;28;20428;-68
2023/11/15 00:26:21;;;;;;;9.63;5.37;;;10.50;99.90;;;;;;5029959;28;20190;-68
2023/11/15 00:28:47;;;;;;;7.43;5.73;;;10.50;99.90;;;;;;5029395;28;20236;-68
2023/11/15 00:31:12;;;;;;;7.93;6.00;;;10.50;99.90;;;;;;5030228;28;20193;-67
2023/11/15 00:33:38;;;;;;;7.33;4.83;;;10.50;99.90;;;;;;5028823;28;20236;-68
2023/11/15 00:36:05;;;;;;;9.50;5.87;;;10.60;99.90;;;;;;5027798;28;20181;-68
2023/11/15 00:38:31;;;;;;;7.53;5.00;;;10.60;99.90;;;;;;5030536;28;20444;-68
2023/11/15 00:40:58;;;;;;;6.33;4.27;;;10.60;99.90;;;;;;5030050;28;20428;-68
2023/11/15 00:43:24;;;;;;;8.77;4.43;;;10.60;99.90;;;;;;5029538;28;20625;-68
2023/11/15 00:45:50;;;;;;;7.03;3.50;;;10.50;99.90;;;;;;5028985;28;20425;-68
2023/11/15 00:48:16;;;;;;;5.33;3.23;;;10.50;99.90;;;;;;5029283;28;20472;-68
2023/11/15 00:50:43;;;;;;;7.57;3.00;;;10.50;99.90;;;;;;5029456;28;20523;-68
2023/11/15 00:53:08;;;;;;;7.23;3.07;;;10.50;99.90;;;;;;5028268;28;20439;-67
2023/11/15 00:55:34;;;;;;;7.37;3.10;;;10.50;99.90;;;;;;5030127;28;20428;-68
2023/11/15 00:58:03;;;;;;;7.00;2.87;;;10.60;99.90;;;;;;5029293;28;21245;-68
2023/11/15 01:00:38;;;;;;;7.43;2.90;;;10.60;99.90;;;;;;5030406;28;20604;-68
2023/11/15 01:03:04;;;;;;;4.83;2.90;;;10.50;99.90;;;;;;5028741;28;20494;-67
2023/11/15 01:05:30;;;;;;;5.43;3.10;;;10.60;99.90;;;;;;5029968;28;20545;-68
2023/11/15 01:07:59;;;;;;;4.40;2.73;;;10.60;99.90;;;;;;5030699;28;21108;-68
2023/11/15 01:10:25;;;;;;;5.17;3.00;;;10.60;99.90;;;;;;5029945;28;20830;-68
2023/11/15 01:12:51;;;;;;;5.13;3.20;;;10.70;99.90;;;;;;5029143;28;20648;-68
2023/11/15 01:15:19;;;;;;;7.10;3.57;;;10.60;99.90;;;;;;5028353;28;21011;-68
2023/11/15 01:17:47;;;;;;;8.00;3.70;;;10.60;99.90;;;;;;5029836;28;21197;-68
2023/11/15 01:20:13;;;;;;;5.23;3.07;;;10.40;99.90;;;;;;5034089;28;20425;-68
2023/11/15 01:22:40;;;;;;;5.20;3.30;;;10.50;99.90;;;;;;5029497;28;20484;-68
2023/11/15 01:25:06;;;;;;;6.23;2.80;;;10.50;99.90;;;;;;5031400;28;20186;-68
2023/11/15 01:27:32;;;;;;;5.20;2.50;;;10.50;99.90;;;;;;5033913;28;20460;-68
2023/11/15 01:29:58;;;;;;;5.97;3.27;;;10.50;99.90;;;;;;5033262;28;20436;-68
2023/11/15 01:32:23;;;;;;;4.50;3.10;;;10.50;99.90;;;;;;5033227;28;20237;-67
2023/11/15 01:34:49;;;;;;;4.50;3.07;;;10.50;99.90;;;;;;5033293;28;20182;-68
2023/11/15 01:37:15;;;;;;;7.40;3.70;;;10.50;99.90;;;;;;5032424;28;20733;-67
2023/11/15 01:39:41;;;;;;;4.63;3.50;;;10.40;99.90;;;;;;5033929;28;20197;-68
2023/11/15 01:42:08;;;;;;;4.43;3.00;;;10.40;99.90;;;;;;5030219;28;20217;-68
2023/11/15 01:44:34;;;;;;;6.87;3.60;;;10.40;99.90;;;;;;5032703;28;20460;-68
2023/11/15 01:47:00;;;;;;;7.13;4.13;;;10.50;99.90;;;;;;5033458;28;20459;-69
2023/11/15 01:49:27;;;;;;;5.20;4.60;;;10.50;99.90;;;;;;5032909;28;21192;-68
2023/11/15 01:51:54;;;;;;;6.70;4.97;;;10.40;99.90;;;;;;5033461;28;20420;-68
2023/11/15 01:54:21;;;;;;;10.17;5.60;;;10.50;99.90;;;;;;5031503;28;20440;-68
2023/11/15 01:56:47;;;;;;;9.10;6.23;;;10.50;99.90;;;;;;5033103;28;20460;-68
2023/11/15 01:59:14;;;;;;;10.40;6.87;;;10.50;99.90;;;;;;5032623;28;20529;-68
2023/11/15 02:01:42;;;;;;;9.03;6.73;;;10.50;99.90;;;;;;5033309;28;20547;-68
2023/11/15 02:04:08;;;;;;;10.17;6.93;;;10.60;99.90;;;;;;5030918;28;20431;-67
2023/11/15 02:06:38;;;;;;;12.87;7.23;;;10.70;99.90;;;;;;5033115;28;20421;-68
2023/11/15 02:09:05;;;;;;;11.87;7.40;;;10.70;99.90;;;;;;5032895;28;20190;-69
2023/11/15 02:11:31;;;;;;;9.33;7.60;;;10.70;99.90;;;;;;5032687;28;20490;-68
2023/11/15 02:13:58;;;;;;;17.30;8.67;;;10.60;99.90;;;;;;5031974;28;21213;-68
2023/11/15 02:16:24;;;;;;;11.80;8.47;;;10.60;99.90;;;;;;5031484;28;20221;-68
2023/11/15 02:18:50;;;;;;;18.57;9.87;;;10.70;99.90;;;;;;5033050;28;20515;-68
2023/11/15 02:21:16;;;;;;;11.10;7.77;;;10.70;99.90;;;;;;5031935;28;20434;-67
2023/11/15 02:23:45;;;;;;;14.43;7.97;;;10.70;99.90;;;;;;5032269;28;21099;-68
2023/11/15 02:26:12;;;;;;;13.10;8.17;;;10.80;99.90;;;;;;5032062;28;20189;-67
2023/11/15 02:28:38;;;;;;;14.33;9.20;;;10.80;99.90;;;;;;5032585;28;20550;-68
2023/11/15 02:31:05;;;;;;;12.40;8.20;;;10.70;99.90;;;;;;5032308;28;20453;-67
2023/11/15 02:33:32;;;;;;;11.77;8.00;;;10.80;99.90;;;;;;5031110;28;21019;-68
2023/11/15 02:35:58;;;;;;;14.90;8.27;;;10.80;99.90;;;;;;5032367;28;20463;-68
2023/11/15 02:38:24;;;;;;;17.53;9.47;;;10.80;99.90;;;;;;5031466;28;20483;-68
2023/11/15 02:40:49;;;;;;;15.83;9.63;;;10.90;99.90;;;;;;5029308;28;20456;-67
2023/11/15 02:43:15;;;;;;;12.50;8.67;;;10.90;99.90;;;;;;5032015;28;20974;-67
2023/11/15 02:45:42;;;;;;;14.40;9.40;;;10.80;99.90;;;;;;5033372;28;20182;-67
2023/11/15 02:48:08;;;;;;;16.97;8.20;;;10.90;99.90;;;;;;5032918;28;20210;-68
2023/11/15 02:50:34;;;;;;;11.53;9.03;;;10.90;99.90;;;;;;5032352;28;21236;-68
2023/11/15 02:53:00;;;;;;;13.60;7.67;;;10.90;99.90;;;;;;5031885;28;20423;-67
2023/11/15 02:55:25;;;;;;;13.20;8.43;;;10.80;99.90;;;;;;5030380;28;20585;-67
2023/11/15 02:57:51;;;;;;;16.47;10.27;;;10.70;99.90;;;;;;5031430;28;20232;-68
2023/11/15 03:00:17;;;;;;;12.07;8.70;;;10.80;99.90;;;;;;5031781;28;20252;-68
2023/11/15 03:02:43;;;;;;;18.07;9.33;;;10.80;99.90;;;;;;5031750;28;20440;-68
2023/11/15 03:05:12;;;;;;;10.33;8.40;;;10.80;99.90;;;;;;5031517;28;20531;-67
2023/11/15 03:07:37;;;;;;;12.10;8.53;;;10.80;99.90;;;;;;5031071;28;20220;-68
2023/11/15 03:10:04;;;;;;;8.83;7.87;;;10.80;99.90;;;;;;5032140;28;20429;-68
2023/11/15 03:12:32;;;;;;;13.27;8.60;;;10.90;99.90;;;;;;5030493;28;20193;-67
2023/11/15 03:14:58;;;;;;;12.07;9.40;;;10.90;99.90;;;;;;5031215;28;21161;-68
2023/11/15 03:17:24;;;;;;;12.63;9.23;;;10.90;99.90;;;;;;5031075;28;20432;-67
2023/11/15 03:19:49;;;;;;;14.00;8.97;;;10.90;99.90;;;;;;5030828;28;20190;-68
2023/11/15 03:22:17;;;;;;;17.13;10.07;;;10.90;99.90;;;;;;5031085;28;20537;-68
2023/11/15 03:24:45;;;;;;;12.83;9.20;;;10.80;99.90;;;;;;5029917;28;20429;-68
2023/11/15 03:27:14;;;;;;;15.57;9.20;;;10.80;99.90;;;;;;5031060;28;20468;-68
2023/11/15 03:29:39;;;;;;;13.77;8.30;;;10.80;99.90;;;;;;5030643;28;20786;-68
2023/11/15 03:32:06;;;;;;;11.50;8.30;;;10.80;99.90;;;;;;5030864;28;20433;-68
2023/11/15 03:34:33;;;;;;;13.27;8.60;;;10.80;99.90;;;;;;5030044;28;20213;-68
2023/11/15 03:36:59;;;;;;;13.57;10.50;;;10.80;99.90;;;;;;5030964;28;20498;-68
2023/11/15 03:39:26;;;;;;;19.27;9.07;;;10.80;99.90;;;;;;5030876;28;21120;-68
2023/11/15 03:41:52;;;;;;;15.83;9.77;;;10.70;99.90;;;;;;5030732;28;20578;-68
2023/11/15 03:44:17;;;;;;;19.70;9.30;;;10.70;99.90;;;;;;5030921;28;20432;-67
2023/11/15 03:46:43;;;;;;;12.93;9.80;;;10.70;99.90;;;;;;5029865;28;20464;-68
2023/11/15 03:49:09;;;;;;;15.57;9.00;;;10.70;99.90;;;;;;5031846;28;20207;-68
2023/11/15 03:51:34;;;;;;;19.30;8.90;;;10.80;99.90;;;;;;5030551;28;20190;-67
2023/11/15 03:54:00;;;;;;;15.43;9.00;;;10.80;99.90;;;;;;5029970;28;20432;-68
2023/11/15 03:56:26;;;;;;;13.30;9.50;;;10.80;99.90;;;;;;5031130;28;20182;-67
2023/11/15 03:58:52;;;;;;;11.07;8.13;;;10.80;99.90;;;;;;5030687;28;20261;-68
2023/11/15 04:01:17;;;;;;;12.20;8.60;;;10.80;99.90;;;;;;5030393;28;20185;-68
2023/11/15 04:03:43;;;;;;;18.67;7.93;;;10.80;99.90;;;;;;5029513;28;20221;-68
2023/11/15 04:06:09;;;;;;;11.00;8.17;;;10.80;99.90;;;;;;5030505;28;20287;-68
2023/11/15 04:08:36;;;;;;;12.90;8.30;;;10.80;99.90;;;;;;5031683;28;20217;-67
2023/11/15 04:11:02;;;;;;;9.97;7.50;;;10.80;99.90;;;;;;5031072;28;20440;-67
2023/11/15 04:13:27;;;;;;;11.73;6.83;;;10.80;99.90;;;;;;5030943;28;20928;-69
2023/11/15 04:15:54;;;;;;;13.80;7.60;;;10.80;99.90;;;;;;5028295;28;20941;-68
2023/11/15 04:18:20;;;;;;;13.20;8.33;;;10.80;99.90;;;;;;5030595;28;20181;-67
2023/11/15 04:20:46;;;;;;;12.47;8.20;;;10.80;99.90;;;;;;5029982;28;20424;-68
2023/11/15 04:23:12;;;;;;;16.23;9.70;;;10.80;99.90;;;;;;5029413;28;20793;-68
2023/11/15 04:25:39;;;;;;;17.30;9.40;;;10.70;99.90;;;;;;5030125;28;20228;-67
2023/11/15 04:28:06;;;;;;;15.10;8.40;;;10.80;99.90;;;;;;5031224;28;20229;-68
2023/11/15 04:30:32;;;;;;;13.70;8.83;;;10.70;99.90;;;;;;5030580;28;21352;-68
2023/11/15 04:32:59;;;;;;;12.50;9.10;;;10.70;99.90;;;;;;5030226;28;20425;-68
2023/11/15 04:35:25;;;;;;;12.80;8.63;;;10.70;99.90;;;;;;5029913;28;20436;-68
2023/11/15 04:37:50;;;;;;;10.97;8.03;;;10.80;99.90;;;;;;5029465;28;20429;-68
2023/11/15 04:40:18;;;;;;;17.03;9.03;;;10.70;99.90;;;;;;5030122;28;20198;-68
2023/11/15 04:42:43;;;;;;;18.70;10.00;;;10.80;99.90;;;;;;5029556;28;20174;-68
2023/11/15 04:45:09;;;;;;;15.80;9.57;;;10.80;99.90;;;;;;5029365;28;20483;-68
2023/11/15 04:47:35;;;;;;;15.10;8.60;;;10.80;99.90;;;;;;5029832;28;20292;-68
2023/11/15 04:50:01;;;;;;;12.13;8.57;;;10.80;99.90;;;;;;5029798;28;20482;-68
2023/11/15 04:52:27;;;;;;;13.43;9.20;;;10.80;99.90;;;;;;5029222;28;20189;-68
2023/11/15 04:54:54;;;;;;;18.13;9.00;;;10.80;99.90;;;;;;5029094;28;20429;-68
2023/11/15 04:57:23;;;;;;;12.63;8.23;;;10.70;99.90;;;;;;5030172;28;20428;-68
2023/11/15 04:59:51;;;;;;;13.97;8.30;;;10.80;99.90;;;;;;5029491;28;20444;-68
2023/11/15 05:02:17;;;;;;;15.27;8.50;;;10.70;99.90;;;;;;5030079;28;20433;-68
2023/11/15 05:04:43;;;;;;;13.63;7.63;;;10.70;99.90;;;;;;5028972;28;21020;-68
2023/11/15 05:07:11;;;;;;;13.37;8.23;;;10.70;99.90;;;;;;5029559;28;20683;-68
2023/11/15 05:09:37;;;;;;;18.07;9.17;;;10.70;99.90;;;;;;5029657;28;20503;-69
2023/11/15 05:12:03;;;;;;;15.63;8.70;;;10.70;99.90;;;;;;5029093;28;20432;-68
2023/11/15 05:14:29;;;;;;;13.50;8.37;;;10.70;99.90;;;;;;5029447;28;20425;-68
2023/11/15 05:16:55;;;;;;;14.50;9.30;;;10.70;99.90;;;;;;5028280;28;20432;-68
2023/11/15 05:19:20;;;;;;;16.90;8.10;;;10.70;99.90;;;;;;5030096;28;20544;-68
2023/11/15 05:21:46;;;;;;;10.90;8.07;;;10.70;99.90;;;;;;5029455;28;20190;-68
2023/11/15 05:24:12;;;;;;;14.00;8.80;;;10.70;99.90;;;;;;5027211;28;20178;-68
2023/11/15 05:26:37;;;;;;;11.23;7.63;;;10.70;99.90;;;;;;5052067;28;20178;-68
2023/11/15 05:29:03;;;;;;;16.37;9.00;;;10.70;99.90;;;;;;5030062;28;20183;-69
2023/11/15 05:31:29;;;;;;;15.23;8.60;;;10.70;99.90;;;;;;5031664;28;20185;-68
2023/11/15 05:33:54;;;;;;;17.23;9.50;;;10.70;99.90;;;;;;5029481;28;20661;-69
2023/11/15 05:36:22;;;;;;;12.50;8.00;;;10.70;99.90;;;;;;5031112;28;20185;-68
2023/11/15 05:38:48;;;;;;;14.40;7.67;;;10.70;99.90;;;;;;5029498;28;20566;-68
2023/11/15 05:41:13;;;;;;;14.83;8.30;;;10.70;99.90;;;;;;5029284;28;20432;-68
2023/11/15 05:43:40;;;;;;;11.37;7.63;;;10.70;99.90;;;;;;5028684;28;20424;-68
2023/11/15 05:46:06;;;;;;;13.40;7.07;;;10.80;99.90;;;;;;5028406;28;20178;-68
2023/11/15 05:48:33;;;;;;;12.27;7.10;;;10.80;99.90;;;;;;5029810;28;20482;-67
2023/11/15 05:51:00;;;;;;;14.53;6.70;;;10.80;99.90;;;;;;5028387;28;20527;-68
2023/11/15 05:53:26;;;;;;;12.83;7.03;;;10.70;99.90;;;;;;5029703;28;20920;-68
2023/11/15 05:55:52;;;;;;;14.50;7.70;;;10.70;99.90;;;;;;5028985;28;20520;-68
2023/11/15 05:58:17;;;;;;;14.60;7.67;;;10.70;99.90;;;;;;5028451;28;20198;-68
2023/11/15 06:00:43;;;;;;;9.87;7.23;;;10.70;99.90;;;;;;5031066;28;20217;-68
2023/11/15 06:03:09;;;;;;;14.83;7.20;;;10.70;99.90;;;;;;5028634;28;20716;-68
2023/11/15 06:05:34;;;;;;;17.13;8.60;;;10.60;99.90;;;;;;5028174;28;20217;-68
2023/11/15 06:08:00;;;;;;;17.03;7.20;;;10.70;99.90;;;;;;5028950;28;20222;-68
2023/11/15 06:10:26;;;;;;;11.27;6.80;;;10.60;99.90;;;;;;5031392;28;20289;-68
2023/11/15 06:12:55;;;;;;;13.40;7.50;;;10.70;99.90;;;;;;5033435;28;20652;-68
2023/11/15 06:15:21;;;;;;;10.37;6.50;;;10.70;99.90;;;;;;5030530;28;20520;-67
2023/11/15 06:17:46;;;;;;;12.77;8.53;;;10.60;99.90;;;;;;5033085;28;20435;-68
2023/11/15 06:20:13;;;;;;;12.77;7.27;;;10.60;99.90;;;;;;5031764;28;20428;-68
2023/11/15 06:22:39;;;;;;;8.33;6.17;;;10.50;99.90;;;;;;5032640;28;20423;-68
2023/11/15 06:25:08;;;;;;;13.23;6.53;;;10.50;99.90;;;;;;5031415;28;20490;-68
2023/11/15 06:27:37;;;;;;;11.60;6.67;;;10.50;99.90;;;;;;5033129;28;20563;-68
2023/11/15 06:30:04;;;;;;;14.23;7.03;;;10.50;99.90;;;;;;5032081;28;20769;-68
2023/11/15 06:32:30;;;;;;;13.03;6.57;;;10.50;99.90;;;;;;5032636;28;20426;-68
2023/11/15 06:34:57;;;;;;;14.30;5.67;;;10.50;99.90;;;;;;5034642;28;20461;-68
2023/11/15 06:37:23;;;;;;;11.97;5.80;;;10.50;99.90;;;;;;5031799;28;21213;-68
2023/11/15 06:39:49;;;;;;;10.60;5.93;;;10.50;99.90;;;;;;5032384;28;20436;-68
2023/11/15 06:42:15;;;;;;;13.70;6.50;;;10.50;99.90;;;;;;5031716;28;20460;-68
2023/11/15 06:44:42;;;;;;;10.57;5.50;;;10.50;99.90;;;;;;5031895;28;20822;-68
2023/11/15 06:47:08;;;;;;;10.07;5.00;;;10.50;99.90;;;;;;5031227;28;20464;-68
2023/11/15 06:49:37;;;;;;;11.23;5.27;;;10.40;99.90;;;;;;5032624;28;20439;-68
2023/11/15 06:52:03;;;;;;;8.90;4.93;;;10.40;99.90;;;;;;5032165;28;20508;-68
2023/11/15 06:54:29;;;;;;;7.40;5.47;;;10.40;99.90;;;;;;5031961;28;20433;-68
2023/11/15 06:56:55;;;;;;;11.13;5.30;;;10.40;99.90;;;;;;5033422;28;20437;-68
2023/11/15 06:59:21;;;;;;;10.13;4.80;;;10.50;99.90;;;;;;5031982;28;20186;-69
2023/11/15 07:01:49;;;;;;;6.50;4.60;;;10.60;99.90;;;;;;5032449;28;20186;-67
2023/11/15 07:04:16;;;;;;;10.70;5.40;;;10.60;99.90;;;;;;5029764;28;21032;-68
2023/11/15 07:06:48;;;;;;;8.50;4.53;;;10.50;99.90;;;;;;5031464;28;20428;-68
2023/11/15 07:09:15;;;;;;;6.00;4.47;;;10.50;99.90;;;;;;5031048;28;20497;-68
2023/11/15 07:11:46;;;;;;;8.27;4.43;;;10.50;99.90;;;;;;5031894;28;20436;-68
2023/11/15 07:14:15;;;;;;;6.23;4.00;;;10.50;99.90;;;;;;5029075;28;20784;-68
2023/11/15 07:16:47;;;;;;;6.60;4.50;;;10.50;99.90;;;;;;5029489;28;21002;-68
2023/11/15 07:19:14;;;;;;;11.70;4.80;;;10.50;99.90;;;;;;5029996;28;20447;-68
2023/11/15 07:21:40;;;;;;;7.83;4.60;;;10.50;99.90;;;;;;5029802;28;20428;-68
2023/11/15 07:24:08;;;;;;;10.20;6.13;;;10.50;99.90;;;;;;5030069;28;20507;-67
2023/11/15 07:26:35;;;;;;;10.50;4.37;;;10.50;99.90;;;;;;5030136;28;20862;-68
2023/11/15 07:29:09;;;;;;;9.33;4.60;;;10.50;99.90;;;;;;5031551;28;20436;-68
2023/11/15 07:31:35;;;;;;;7.07;4.63;;;10.50;99.90;;;;;;5031657;28;20547;-68
2023/11/15 07:34:05;;;;;;;10.83;5.53;;;10.50;99.90;;;;;;5029561;28;20416;-68
2023/11/15 07:36:33;;;;;;;10.50;4.80;;;10.50;99.90;;;;;;5029918;28;21234;-68
2023/11/15 07:39:04;;;;;;;8.93;4.40;;;10.40;99.90;;;;;;5036143;28;20824;-68
2023/11/15 07:41:31;;;;;;;10.60;4.70;;;10.50;99.90;;;;;;5029701;28;20797;-68
2023/11/15 07:43:58;;;;;;;9.20;5.00;;;10.50;99.90;;;;;;5028896;28;20425;-68
2023/11/15 07:46:24;;;;;;;9.60;5.70;;;10.60;99.90;;;;;;5027109;28;20448;-68
2023/11/15 07:48:50;;;;;;;12.43;6.53;;;10.60;99.90;;;;;;5029695;28;20555;-68
2023/11/15 07:51:18;;;;;;;9.40;5.70;;;10.50;99.90;;;;;;5031498;28;20432;-68
2023/11/15 07:53:45;;;;;;;8.63;6.00;;;10.50;99.90;;;;;;5029944;28;20484;-68
2023/11/15 07:56:11;;;;;;;10.93;5.20;;;10.50;99.90;;;;;;5030602;28;20429;-68
2023/11/15 07:58:37;;;;;;;10.10;6.90;;;10.50;99.90;;;;;;5030337;28;20448;-68
2023/11/15 08:01:04;;;;;;;9.53;5.60;;;10.40;99.90;;;;;;5029800;28;20267;-68
2023/11/15 08:03:30;;;;;;;13.97;8.10;;;10.50;99.90;;;;;;5029365;28;20433;-68
2023/11/15 08:05:55;;;;;;;13.07;6.60;;;10.50;99.90;;;;;;5032790;28;20432;-68
2023/11/15 08:08:22;;;;;;;13.40;7.90;;;10.50;99.90;;;;;;5031484;28;20325;-68
2023/11/15 08:10:50;;;;;;;10.47;6.30;;;10.50;99.90;;;;;;5030446;28;20189;-67
2023/11/15 08:13:19;;;;;;;12.00;7.00;;;10.60;99.90;;;;;;5029240;28;20555;-68
2023/11/15 08:15:49;;;;;;;7.00;6.10;;;10.60;99.90;;;;;;5029338;28;20421;-68
2023/11/15 08:18:15;;;;;;;11.30;6.23;;;10.60;99.90;;;;;;5030484;28;20443;-68
2023/11/15 08:20:45;;;;;;;13.47;6.37;;;10.60;99.90;;;;;;5029606;28;20421;-68
2023/11/15 08:23:12;;;;;;;16.23;6.20;;;10.60;99.90;;;;;;5030156;28;20938;-68
2023/11/15 08:25:41;;;;;;;11.50;6.07;;;10.70;99.90;;;;;;5029733;28;20428;-68
2023/11/15 08:28:06;;;;;;;11.50;6.43;;;10.60;99.90;;;;;;5030147;28;20540;-68
2023/11/15 08:30:33;;;;;;;8.77;5.90;;;10.60;99.90;;;;;;5028783;28;20954;-68
2023/11/15 08:32:59;;;;;;;12.53;6.80;;;10.60;99.90;;;;;;5030164;28;20441;-68
2023/11/15 08:35:26;;;;;;;11.10;5.87;;;10.60;99.90;;;;;;5029028;28;20421;-68
2023/11/15 08:37:54;;;;;;;8.37;7.40;;;10.60;99.90;;;;;;5030785;28;20535;-68
2023/11/15 08:40:24;;;;;;;15.07;6.67;;;10.60;99.90;;;;;;5031633;28;20440;-69
2023/11/15 08:42:51;;;;;;;18.93;7.60;;;10.70;99.90;;;;;;5032072;28;20428;-68
2023/11/15 08:45:20;;;;;;;11.17;6.10;;;10.70;99.90;;;;;;5030833;28;21405;-68
2023/11/15 08:47:46;;;;;;;8.63;5.50;;;10.70;99.90;;;;;;5028732;28;20468;-68
2023/11/15 08:50:14;;;;;;;11.03;6.33;;;10.80;99.90;;;;;;5029860;28;20451;-68
2023/11/15 08:52:40;;;;;;;12.47;5.20;;;10.70;99.90;;;;;;5028857;28;20704;-68
2023/11/15 08:55:08;;;;;;;16.27;6.23;;;10.70;99.90;;;;;;5029001;28;20421;-68
2023/11/15 08:57:35;;;;;;;16.10;6.57;;;10.70;99.90;;;;;;5030698;28;20182;-68
2023/11/15 09:00:01;;;;;;;9.87;5.73;;;10.80;99.90;;;;;;5030432;28;20486;-68
2023/11/15 09:02:27;;;;;;;12.83;6.07;;;10.70;99.90;;;;;;5029784;28;20433;-68
2023/11/15 09:04:53;;;;;;;9.27;5.60;;;10.70;99.90;;;;;;5028719;28;20428;-68
2023/11/15 09:07:19;;;;;;;10.80;5.70;;;10.80;99.90;;;;;;5030321;28;20209;-68
2023/11/15 09:09:46;;;;;;;12.20;6.43;;;10.80;99.90;;;;;;5029536;28;20527;-68
2023/11/15 09:12:15;;;;;;;10.60;5.33;;;10.70;99.90;;;;;;5029549;28;20429;-68
2023/11/15 09:14:41;;;;;;;14.13;6.90;;;10.70;99.90;;;;;;5050225;28;21343;-68
2023/11/15 09:17:12;;;;;;;10.53;6.00;;;10.80;99.90;;;;;;5028877;28;20428;-68
2023/11/15 09:19:41;;;;;;;10.13;5.57;;;10.80;99.90;;;;;;5029760;28;20285;-68
2023/11/15 09:22:08;;;;;;;12.30;5.33;;;10.80;99.90;;;;;;5029357;28;20527;-68
2023/11/15 09:24:33;;;;;;;9.50;5.20;;;10.80;99.90;;;;;;5029056;28;20440;-68
2023/11/15 09:27:00;;;;;;;10.63;5.57;;;10.90;99.90;;;;;;5030910;28;20538;-68
2023/11/15 09:29:28;;;;;;;9.70;5.80;;;11.00;99.90;;;;;;5032510;28;20292;-68
2023/11/15 09:31:54;;;;;;;8.97;5.43;;;11.00;99.90;;;;;;5029685;28;21256;-68
2023/11/15 09:34:20;;;;;;;10.30;5.63;;;11.10;99.90;;;;;;5029315;28;20433;-68
2023/11/15 09:36:47;;;;;;;9.17;4.87;;;11.20;99.90;;;;;;5028439;28;20433;-68
2023/11/15 09:39:16;;;;;;;11.80;5.73;;;11.10;99.90;;;;;;5029392;28;20190;-68
2023/11/15 09:41:53;;;;;;;15.63;5.40;;;11.20;99.90;;;;;;5028522;28;20445;-68
2023/11/15 09:44:23;;;;;;;12.13;5.20;;;11.20;99.90;;;;;;5029875;28;20432;-68
2023/11/15 09:46:52;;;;;;;11.47;5.30;;;11.20;99.90;;;;;;5033246;28;20428;-68
2023/11/15 09:49:23;;;;;;;12.37;5.20;;;11.20;99.90;;;;;;5033705;28;21129;-68
2023/11/15 09:51:48;;;;;;;7.97;4.60;;;11.20;99.90;;;;;;5033325;28;20524;-68
2023/11/15 09:54:15;;;;;;;12.73;6.43;;;11.20;99.90;;;;;;5032609;28;21325;-68
2023/11/15 09:56:43;;;;;;;10.77;5.07;;;11.20;99.90;;;;;;5032807;28;20498;-68
2023/11/15 09:59:08;;;;;;;8.83;4.60;;;11.10;99.90;;;;;;5032887;28;20429;-68
2023/11/15 10:01:34;;;;;;;5.80;4.17;;;11.10;99.90;;;;;;5033335;28;20439;-68
2023/11/15 10:04:02;;;;;;;7.27;3.27;;;11.10;99.90;;;;;;5032366;28;20259;-68
2023/11/15 10:06:40;;;;;;;9.23;4.17;;;10.90;99.90;;;;;;5033047;28;20444;-68
2023/11/15 10:09:07;;;;;;;9.87;4.13;;;10.90;99.90;;;;;;5033449;28;20505;-68
2023/11/15 10:11:32;;;;;;;10.33;4.77;;;10.80;99.90;;;;;;5032607;28;20443;-68
2023/11/15 10:14:12;;;;;;;7.57;4.53;;;10.80;99.90;;;;;;5032347;28;20428;-68
2023/11/15 10:16:39;;;;;;;6.60;5.10;;;10.80;99.90;;;;;;5031839;28;20264;-68
2023/11/15 10:19:26;;;;;;;13.70;5.93;;;10.80;99.90;;;;;;5032499;28;20886;-68
2023/11/15 10:22:04;;;;;;;13.80;4.97;;;10.80;99.90;;;;;;5032447;28;20956;-68
2023/11/15 10:24:31;;;;;;;10.10;4.87;;;10.80;99.90;;;;;;5046976;28;20779;-68
2023/11/15 10:27:10;;;;;;;12.60;5.40;;;10.90;99.90;;;;;;5030269;28;20436;-68
2023/11/15 10:29:39;;;;;;;11.70;6.17;;;11.00;99.90;;;;;;5031945;28;21024;-68
2023/11/15 10:32:05;;;;;;;8.67;5.20;;;11.10;99.90;;;;;;5031661;28;21195;-68
2023/11/15 10:34:34;;;;;;;11.10;6.00;;;11.10;99.90;;;;;;5032624;28;20439;-68
2023/11/15 10:37:03;;;;;;;12.23;5.63;;;11.10;99.90;;;;;;5032081;28;20942;-68
2023/11/15 10:39:28;;;;;;;8.60;5.10;;;11.10;99.90;;;;;;5032829;28;20548;-68
2023/11/15 10:41:55;;;;;;;5.93;5.07;;;11.00;99.90;;;;;;5031637;28;20539;-68
2023/11/15 10:44:22;;;;;;;10.57;5.33;;;11.10;99.90;;;;;;5032227;28;20433;-68
2023/11/15 10:46:50;;;;;;;9.97;5.47;;;11.10;99.90;;;;;;5032420;28;20448;-68
2023/11/15 10:49:19;;;;;;;11.90;6.60;;;11.10;99.90;;;;;;5032470;28;20431;-68
2023/11/15 10:51:48;;;;;;;13.60;4.80;;;11.10;99.90;;;;;;5032379;28;20888;-68
2023/11/15 10:54:15;;;;;;;11.20;5.63;;;11.10;99.90;;;;;;5031091;28;20424;-68
2023/11/15 10:56:41;;;;;;;14.63;7.83;;;11.10;99.90;;;;;;5032153;28;20437;-68
2023/11/15 10:59:10;;;;;;;11.63;5.27;;;11.20;99.90;;;;;;5031799;28;20421;-68
2023/11/15 11:01:37;;;;;;;13.83;5.50;;;11.20;99.90;;;;;;5032396;28;20420;-68
2023/11/15 11:04:05;;;;;;;14.10;6.50;;;11.20;99.90;;;;;;5031136;28;20511;-68
2023/11/15 11:07:04;;;;;;;8.33;4.53;;;11.30;99.90;;;;;;5032535;28;20471;-68
2023/11/15 11:09:52;;;;;;;14.60;6.30;;;11.30;99.90;;;;;;5032444;28;20494;-68
2023/11/15 11:12:22;;;;;;;12.63;5.33;;;11.30;99.90;;;;;;5032155;28;20471;-68
2023/11/15 11:15:12;;;;;;;10.83;4.70;;;11.20;99.90;;;;;;5031909;28;20510;-68
2023/11/15 11:17:42;;;;;;;13.00;4.73;;;11.30;99.90;;;;;;5030432;28;20994;-68
2023/11/15 11:20:27;;;;;;;16.03;5.30;;;11.30;99.90;;;;;;5029804;28;20448;-68
2023/11/15 11:23:10;;;;;;;10.10;4.57;;;11.30;99.90;;;;;;5032059;28;20432;-68
2023/11/15 11:25:39;;;;;;;10.00;4.43;;;11.40;99.90;;;;;;5031801;28;20427;-68
2023/11/15 11:28:06;;;;;;;7.00;4.83;;;11.50;99.90;;;;;;5031436;28;20456;-69
2023/11/15 11:30:31;;;;;;;10.07;4.23;;;11.50;99.90;;;;;;5032387;28;21114;-68
2023/11/15 11:33:19;;;;;;;8.93;4.40;;;11.50;99.90;;;;;;5032211;28;20433;-68
2023/11/15 11:35:46;;;;;;;10.57;3.93;;;11.50;99.90;;;;;;5032041;28;20190;-68
2023/11/15 11:38:44;;;;;;;11.57;5.67;;;11.40;99.90;;;;;;5031289;28;20430;-68
2023/11/15 11:41:13;;;;;;;10.80;3.80;;;11.50;99.90;;;;;;5025992;28;20507;-68
2023/11/15 11:43:41;;;;;;;6.60;3.73;;;11.50;99.90;;;;;;5031112;28;20420;-68
2023/11/15 11:46:15;;;;;;;10.43;3.63;;;11.50;99.90;;;;;;5030943;28;20441;-68
2023/11/15 11:48:42;;;;;;;9.83;4.83;;;11.50;99.90;;;;;;5031865;28;20464;-68
2023/11/15 11:51:08;;;;;;;7.73;3.77;;;11.60;99.90;;;;;;5031185;28;20440;-68
2023/11/15 11:53:38;;;;;;;8.93;3.97;;;11.60;99.90;;;;;;5030937;28;20420;-68
2023/11/15 11:56:09;;;;;;;10.27;4.40;;;11.60;99.90;;;;;;5031648;28;20432;-68
2023/11/15 11:58:36;;;;;;;6.87;3.73;;;11.60;99.90;;;;;;5030675;28;20459;-68
2023/11/15 12:01:07;;;;;;;6.63;3.70;;;11.70;99.90;;;;;;5031390;28;20474;-68
2023/11/15 12:03:38;;;;;;;6.20;3.90;;;11.70;99.90;;;;;;5029628;28;20482;-68
2023/11/15 12:06:12;;;;;;;5.80;3.77;;;11.80;99.90;;;;;;5030627;28;20443;-68
2023/11/15 12:08:40;;;;;;;7.47;3.77;;;11.70;99.90;;;;;;5044972;28;21046;-68
2023/11/15 12:11:07;;;;;;;6.97;3.40;;;11.80;99.90;;;;;;5031366;28;21088;-68
2023/11/15 12:13:42;;;;;;;8.97;4.40;;;11.90;99.90;;;;;;5030976;28;20421;-69
2023/11/15 12:16:16;;;;;;;6.97;4.20;;;11.90;99.90;;;;;;5028176;28;20472;-68
2023/11/15 12:18:41;;;;;;;12.13;5.07;;;11.90;99.90;;;;;;5032806;28;21088;-68
2023/11/15 12:21:07;;;;;;;6.90;3.33;;;12.00;99.90;;;;;;5033466;28;20525;-68
2023/11/15 12:23:35;;;;;;;6.63;3.80;;;12.00;99.90;;;;;;5031599;28;20189;-68
2023/11/15 12:26:04;;;;;;;10.57;4.23;;;12.10;99.90;;;;;;5033116;28;20189;-68
2023/11/15 12:28:32;;;;;;;7.70;3.60;;;12.10;99.90;;;;;;5030780;28;20600;-68
2023/11/15 12:31:03;;;;;;;18.97;4.50;;;12.10;99.90;;;;;;5031413;28;20423;-68
2023/11/15 12:33:30;;;;;;;13.10;4.30;;;12.10;99.90;;;;;;5030921;28;20441;-68
2023/11/15 12:35:56;;;;;;;7.13;3.53;;;12.10;99.90;;;;;;5031380;28;20455;-68
2023/11/15 12:38:23;;;;;;;7.13;3.77;;;12.10;99.90;;;;;;5030566;28;20531;-68
2023/11/15 12:40:48;;;;;;;10.70;4.13;;;12.10;99.90;;;;;;5030361;28;20537;-68
2023/11/15 12:43:25;;;;;;;7.13;4.23;;;12.10;99.90;;;;;;5029727;28;20934;-68